sensor_id;sensor_type;location;lat;lon;timestamp;temperature;humidity
33955;DHT22;20233;50.804;7.126;2023-06-22T00:01:19;23.80;99.90
33955;DHT22;20233;50.804;7.126;2023-06-22T00:03:48;23.70;99.90
33955;DHT22;20233;50.804;7.126;2023-06-22T00:06:15;23.70;99.90
33955;DHT22;20233;50.804;7.126;2023-06-22T00:08:41;23.70;99.90
33955;DHT22;20233;50.804;7.126;2023-06-22T00:11:07;23.70;99.90
33955;DHT22;20233;50.804;7.126;2023-06-22T00:13:34;23.60;99.90
33955;DHT22;20233;50.804;7.126;2023-06-22T00:16:00;23.60;99.90
33955;DHT22;20233;50.804;7.126;2023-06-22T00:18:27;23.50;99.90
33955;DHT22;20233;50.804;7.126;2023-06-22T00:20:55;23.50;99.90
33955;DHT22;20233;50.804;7.126;2023-06-22T00:23:24;23.50;99.90
33955;DHT22;20233;50.804;7.126;2023-06-22T00:25:52;23.50;99.90
33955;DHT22;20233;50.804;7.126;2023-06-22T00:28:19;23.50;99.90
33955;DHT22;20233;50.804;7.126;2023-06-22T00:30:45;23.50;99.90
33955;DHT22;20233;50.804;7.126;2023-06-22T00:33:12;23.40;99.90
33955;DHT22;20233;50.804;7.126;2023-06-22T00:35:39;23.50;99.90
33955;DHT22;20233;50.804;7.126;2023-06-22T00:38:07;23.50;99.90
33955;DHT22;20233;50.804;7.126;2023-06-22T00:40:35;23.50;99.90
33955;DHT22;20233;50.804;7.126;2023-06-22T00:43:02;23.50;99.90
33955;DHT22;20233;50.804;7.126;2023-06-22T00:45:28;23.50;99.90
33955;DHT22;20233;50.804;7.126;2023-06-22T00:47:58;23.50;99.90
33955;DHT22;20233;50.804;7.126;2023-06-22T00:50:29;23.50;99.90
33955;DHT22;20233;50.804;7.126;2023-06-22T00:53:01;23.50;99.90
33955;DHT22;20233;50.804;7.126;2023-06-22T00:55:29;23.40;99.90
33955;DHT22;20233;50.804;7.126;2023-06-22T00:57:56;23.50;99.90
33955;DHT22;20233;50.804;7.126;2023-06-22T01:00:24;23.40;99.90
33955;DHT22;20233;50.804;7.126;2023-06-22T01:02:52;23.40;99.90
33955;DHT22;20233;50.804;7.126;2023-06-22T01:05:22;23.40;99.90
33955;DHT22;20233;50.804;7.126;2023-06-22T01:08:08;23.40;99.90
33955;DHT22;20233;50.804;7.126;2023-06-22T01:10:45;23.40;99.90
33955;DHT22;20233;50.804;7.126;2023-06-22T01:13:30;23.40;99.90
33955;DHT22;20233;50.804;7.126;2023-06-22T01:16:10;23.30;99.90
33955;DHT22;20233;50.804;7.126;2023-06-22T01:18:42;23.30;99.90
33955;DHT22;20233;50.804;7.126;2023-06-22T01:21:12;23.40;99.90
33955;DHT22;20233;50.804;7.126;2023-06-22T01:26:33;23.30;99.90
33955;DHT22;20233;50.804;7.126;2023-06-22T01:29:04;23.40;99.90
33955;DHT22;20233;50.804;7.126;2023-06-22T01:31:31;23.40;99.90
33955;DHT22;20233;50.804;7.126;2023-06-22T01:34:03;23.40;99.90
33955;DHT22;20233;50.804;7.126;2023-06-22T01:36:32;23.40;99.90
33955;DHT22;20233;50.804;7.126;2023-06-22T01:39:00;23.40;99.90
33955;DHT22;20233;50.804;7.126;2023-06-22T01:41:30;23.30;99.90
33955;DHT22;20233;50.804;7.126;2023-06-22T01:43:56;23.30;99.90
33955;DHT22;20233;50.804;7.126;2023-06-22T01:46:23;23.30;99.90
33955;DHT22;20233;50.804;7.126;2023-06-22T01:48:51;23.20;99.90
33955;DHT22;20233;50.804;7.126;2023-06-22T01:51:18;23.20;99.90
33955;DHT22;20233;50.804;7.126;2023-06-22T01:53:44;23.20;99.90
33955;DHT22;20233;50.804;7.126;2023-06-22T01:56:17;23.20;99.90
33955;DHT22;20233;50.804;7.126;2023-06-22T01:58:50;23.20;99.90
33955;DHT22;20233;50.804;7.126;2023-06-22T02:01:23;23.20;99.90
33955;DHT22;20233;50.804;7.126;2023-06-22T02:03:57;23.20;99.90
33955;DHT22;20233;50.804;7.126;2023-06-22T02:06:33;23.10;99.90
33955;DHT22;20233;50.804;7.126;2023-06-22T02:09:07;23.10;99.90
33955;DHT22;20233;50.804;7.126;2023-06-22T02:11:35;23.10;99.90
33955;DHT22;20233;50.804;7.126;2023-06-22T02:14:03;23.10;99.90
33955;DHT22;20233;50.804;7.126;2023-06-22T02:16:32;23.00;99.90
33955;DHT22;20233;50.804;7.126;2023-06-22T02:19:02;23.00;99.90
33955;DHT22;20233;50.804;7.126;2023-06-22T02:21:32;23.00;99.90
33955;DHT22;20233;50.804;7.126;2023-06-22T02:23:59;22.30;99.90
33955;DHT22;20233;50.804;7.126;2023-06-22T02:26:28;23.00;99.90
33955;DHT22;20233;50.804;7.126;2023-06-22T02:28:55;23.00;99.90
33955;DHT22;20233;50.804;7.126;2023-06-22T02:31:21;23.00;99.90
33955;DHT22;20233;50.804;7.126;2023-06-22T02:33:47;23.00;99.90
33955;DHT22;20233;50.804;7.126;2023-06-22T02:36:15;23.00;99.90
33955;DHT22;20233;50.804;7.126;2023-06-22T02:38:42;23.00;99.90
33955;DHT22;20233;50.804;7.126;2023-06-22T02:41:15;22.90;99.90
33955;DHT22;20233;50.804;7.126;2023-06-22T02:43:45;22.90;99.90
33955;DHT22;20233;50.804;7.126;2023-06-22T02:46:11;22.90;99.90
33955;DHT22;20233;50.804;7.126;2023-06-22T02:48:39;22.80;99.90
33955;DHT22;20233;50.804;7.126;2023-06-22T02:51:07;22.80;99.90
33955;DHT22;20233;50.804;7.126;2023-06-22T02:53:35;22.80;99.90
33955;DHT22;20233;50.804;7.126;2023-06-22T02:56:02;22.80;99.90
33955;DHT22;20233;50.804;7.126;2023-06-22T02:58:32;22.80;99.90
33955;DHT22;20233;50.804;7.126;2023-06-22T03:01:05;22.80;99.90
33955;DHT22;20233;50.804;7.126;2023-06-22T03:03:32;22.80;99.90
33955;DHT22;20233;50.804;7.126;2023-06-22T03:05:58;22.80;99.90
33955;DHT22;20233;50.804;7.126;2023-06-22T03:08:28;22.70;99.90
33955;DHT22;20233;50.804;7.126;2023-06-22T03:10:55;22.70;99.90
33955;DHT22;20233;50.804;7.126;2023-06-22T03:13:21;22.80;99.90
33955;DHT22;20233;50.804;7.126;2023-06-22T03:15:48;22.80;99.90
33955;DHT22;20233;50.804;7.126;2023-06-22T03:18:15;22.80;99.90
33955;DHT22;20233;50.804;7.126;2023-06-22T03:20:41;22.80;99.90
33955;DHT22;20233;50.804;7.126;2023-06-22T03:23:08;22.80;99.90
33955;DHT22;20233;50.804;7.126;2023-06-22T03:25:35;22.80;99.90
33955;DHT22;20233;50.804;7.126;2023-06-22T03:28:02;22.70;99.90
33955;DHT22;20233;50.804;7.126;2023-06-22T03:30:28;22.70;99.90
33955;DHT22;20233;50.804;7.126;2023-06-22T03:32:55;22.70;99.90
33955;DHT22;20233;50.804;7.126;2023-06-22T03:35:21;22.70;99.90
33955;DHT22;20233;50.804;7.126;2023-06-22T03:37:48;22.70;99.90
33955;DHT22;20233;50.804;7.126;2023-06-22T03:40:14;22.70;99.90
33955;DHT22;20233;50.804;7.126;2023-06-22T03:42:41;22.70;99.90
33955;DHT22;20233;50.804;7.126;2023-06-22T03:45:08;22.60;99.90
33955;DHT22;20233;50.804;7.126;2023-06-22T03:47:36;22.60;99.90
33955;DHT22;20233;50.804;7.126;2023-06-22T03:50:02;22.50;99.90
33955;DHT22;20233;50.804;7.126;2023-06-22T03:52:30;22.50;99.90
33955;DHT22;20233;50.804;7.126;2023-06-22T03:54:56;22.50;99.90
33955;DHT22;20233;50.804;7.126;2023-06-22T03:57:22;22.50;99.90
33955;DHT22;20233;50.804;7.126;2023-06-22T03:59:49;22.50;99.90
33955;DHT22;20233;50.804;7.126;2023-06-22T04:02:15;22.50;99.90
33955;DHT22;20233;50.804;7.126;2023-06-22T04:04:42;22.60;99.90
33955;DHT22;20233;50.804;7.126;2023-06-22T04:07:09;22.50;99.90
33955;DHT22;20233;50.804;7.126;2023-06-22T04:09:36;22.50;99.90
33955;DHT22;20233;50.804;7.126;2023-06-22T04:12:05;22.50;99.90
33955;DHT22;20233;50.804;7.126;2023-06-22T04:14:31;22.40;99.90
33955;DHT22;20233;50.804;7.126;2023-06-22T04:16:58;22.40;99.90
33955;DHT22;20233;50.804;7.126;2023-06-22T04:19:24;22.50;99.90
33955;DHT22;20233;50.804;7.126;2023-06-22T04:21:51;22.50;99.90
33955;DHT22;20233;50.804;7.126;2023-06-22T04:24:17;22.50;99.90
33955;DHT22;20233;50.804;7.126;2023-06-22T04:26:44;22.60;99.90
33955;DHT22;20233;50.804;7.126;2023-06-22T04:29:13;22.60;99.90
33955;DHT22;20233;50.804;7.126;2023-06-22T04:31:40;22.60;99.90
33955;DHT22;20233;50.804;7.126;2023-06-22T04:34:07;22.60;99.90
33955;DHT22;20233;50.804;7.126;2023-06-22T04:36:38;22.60;99.90
33955;DHT22;20233;50.804;7.126;2023-06-22T04:39:10;22.60;99.90
33955;DHT22;20233;50.804;7.126;2023-06-22T04:41:37;22.60;99.90
33955;DHT22;20233;50.804;7.126;2023-06-22T04:44:19;22.60;99.90
33955;DHT22;20233;50.804;7.126;2023-06-22T04:47:00;22.70;99.90
33955;DHT22;20233;50.804;7.126;2023-06-22T04:49:29;22.70;99.90
33955;DHT22;20233;50.804;7.126;2023-06-22T04:52:00;22.70;99.90
33955;DHT22;20233;50.804;7.126;2023-06-22T04:54:27;22.70;99.90
33955;DHT22;20233;50.804;7.126;2023-06-22T04:56:53;22.70;99.90
33955;DHT22;20233;50.804;7.126;2023-06-22T04:59:27;22.70;99.90
33955;DHT22;20233;50.804;7.126;2023-06-22T05:01:59;22.70;99.90
33955;DHT22;20233;50.804;7.126;2023-06-22T05:04:26;22.70;99.90
33955;DHT22;20233;50.804;7.126;2023-06-22T05:06:54;22.80;99.90
33955;DHT22;20233;50.804;7.126;2023-06-22T05:09:21;22.70;99.90
33955;DHT22;20233;50.804;7.126;2023-06-22T05:11:47;22.80;99.90
33955;DHT22;20233;50.804;7.126;2023-06-22T05:14:14;22.80;99.90
33955;DHT22;20233;50.804;7.126;2023-06-22T05:16:45;22.80;99.90
33955;DHT22;20233;50.804;7.126;2023-06-22T05:19:13;22.80;99.90
33955;DHT22;20233;50.804;7.126;2023-06-22T05:21:40;22.90;99.90
33955;DHT22;20233;50.804;7.126;2023-06-22T05:24:07;22.90;99.90
33955;DHT22;20233;50.804;7.126;2023-06-22T05:26:35;23.00;99.90
33955;DHT22;20233;50.804;7.126;2023-06-22T05:29:03;23.00;99.90
33955;DHT22;20233;50.804;7.126;2023-06-22T05:31:32;23.10;99.90
33955;DHT22;20233;50.804;7.126;2023-06-22T05:33:58;23.20;99.90
33955;DHT22;20233;50.804;7.126;2023-06-22T05:36:27;23.30;99.90
33955;DHT22;20233;50.804;7.126;2023-06-22T05:38:56;23.30;99.90
33955;DHT22;20233;50.804;7.126;2023-06-22T05:41:23;23.40;99.90
33955;DHT22;20233;50.804;7.126;2023-06-22T05:43:51;23.30;99.90
33955;DHT22;20233;50.804;7.126;2023-06-22T05:46:24;23.40;99.90
33955;DHT22;20233;50.804;7.126;2023-06-22T05:48:51;23.60;99.90
33955;DHT22;20233;50.804;7.126;2023-06-22T05:51:19;23.70;99.90
33955;DHT22;20233;50.804;7.126;2023-06-22T05:53:47;23.70;99.90
33955;DHT22;20233;50.804;7.126;2023-06-22T05:56:16;23.70;99.90
33955;DHT22;20233;50.804;7.126;2023-06-22T06:01:11;23.80;99.90
33955;DHT22;20233;50.804;7.126;2023-06-22T06:03:38;23.90;99.90
33955;DHT22;20233;50.804;7.126;2023-06-22T06:06:10;23.90;99.90
33955;DHT22;20233;50.804;7.126;2023-06-22T06:08:40;24.00;99.90
33955;DHT22;20233;50.804;7.126;2023-06-22T06:11:07;24.00;99.90
33955;DHT22;20233;50.804;7.126;2023-06-22T06:13:34;24.00;99.90
33955;DHT22;20233;50.804;7.126;2023-06-22T06:16:01;23.90;99.90
33955;DHT22;20233;50.804;7.126;2023-06-22T06:18:27;23.50;99.90
33955;DHT22;20233;50.804;7.126;2023-06-22T06:20:53;23.70;99.90
33955;DHT22;20233;50.804;7.126;2023-06-22T06:23:20;24.00;99.90
33955;DHT22;20233;50.804;7.126;2023-06-22T06:25:46;24.10;99.90
33955;DHT22;20233;50.804;7.126;2023-06-22T06:28:13;24.10;99.90
33955;DHT22;20233;50.804;7.126;2023-06-22T06:30:41;23.90;99.90
33955;DHT22;20233;50.804;7.126;2023-06-22T06:33:09;23.90;99.90
33955;DHT22;20233;50.804;7.126;2023-06-22T06:35:35;23.60;99.90
33955;DHT22;20233;50.804;7.126;2023-06-22T06:38:01;23.80;99.90
33955;DHT22;20233;50.804;7.126;2023-06-22T06:40:28;23.90;99.90
33955;DHT22;20233;50.804;7.126;2023-06-22T06:42:54;24.00;99.90
33955;DHT22;20233;50.804;7.126;2023-06-22T06:45:23;24.00;99.90
33955;DHT22;20233;50.804;7.126;2023-06-22T06:47:52;24.10;99.90
33955;DHT22;20233;50.804;7.126;2023-06-22T06:50:18;24.20;99.90
33955;DHT22;20233;50.804;7.126;2023-06-22T06:52:45;24.30;99.90
33955;DHT22;20233;50.804;7.126;2023-06-22T06:57:41;24.40;99.90
33955;DHT22;20233;50.804;7.126;2023-06-22T07:00:10;24.50;99.90
33955;DHT22;20233;50.804;7.126;2023-06-22T07:02:41;24.60;99.90
33955;DHT22;20233;50.804;7.126;2023-06-22T07:05:11;24.60;99.90
33955;DHT22;20233;50.804;7.126;2023-06-22T07:07:39;24.60;99.90
33955;DHT22;20233;50.804;7.126;2023-06-22T07:10:08;24.50;99.90
33955;DHT22;20233;50.804;7.126;2023-06-22T07:12:36;24.60;99.90
33955;DHT22;20233;50.804;7.126;2023-06-22T07:15:04;24.70;99.90
33955;DHT22;20233;50.804;7.126;2023-06-22T07:17:34;24.70;99.90
33955;DHT22;20233;50.804;7.126;2023-06-22T07:20:01;24.80;99.90
33955;DHT22;20233;50.804;7.126;2023-06-22T07:22:30;24.80;99.90
33955;DHT22;20233;50.804;7.126;2023-06-22T07:24:56;24.20;99.90
33955;DHT22;20233;50.804;7.126;2023-06-22T07:27:22;23.90;99.90
33955;DHT22;20233;50.804;7.126;2023-06-22T07:32:16;24.00;99.90
33955;DHT22;20233;50.804;7.126;2023-06-22T07:34:43;24.00;99.90
33955;DHT22;20233;50.804;7.126;2023-06-22T07:37:10;24.20;99.90
33955;DHT22;20233;50.804;7.126;2023-06-22T07:39:37;24.00;99.90
33955;DHT22;20233;50.804;7.126;2023-06-22T07:42:04;24.40;99.90
33955;DHT22;20233;50.804;7.126;2023-06-22T07:44:31;24.30;99.90
33955;DHT22;20233;50.804;7.126;2023-06-22T07:46:58;24.40;99.90
33955;DHT22;20233;50.804;7.126;2023-06-22T07:49:25;24.70;99.90
33955;DHT22;20233;50.804;7.126;2023-06-22T07:51:52;24.30;99.90
33955;DHT22;20233;50.804;7.126;2023-06-22T07:54:19;24.40;99.90
33955;DHT22;20233;50.804;7.126;2023-06-22T07:56:47;24.50;99.90
33955;DHT22;20233;50.804;7.126;2023-06-22T07:59:15;24.90;99.90
33955;DHT22;20233;50.804;7.126;2023-06-22T08:01:42;25.30;99.90
33955;DHT22;20233;50.804;7.126;2023-06-22T08:04:09;25.50;99.90
33955;DHT22;20233;50.804;7.126;2023-06-22T08:06:37;25.30;99.90
33955;DHT22;20233;50.804;7.126;2023-06-22T08:09:03;25.50;99.90
33955;DHT22;20233;50.804;7.126;2023-06-22T08:11:30;25.70;99.90
33955;DHT22;20233;50.804;7.126;2023-06-22T08:14:01;25.80;99.90
33955;DHT22;20233;50.804;7.126;2023-06-22T08:16:28;25.90;99.90
33955;DHT22;20233;50.804;7.126;2023-06-22T08:18:55;26.10;99.90
33955;DHT22;20233;50.804;7.126;2023-06-22T08:21:22;26.30;99.90
33955;DHT22;20233;50.804;7.126;2023-06-22T08:23:49;26.30;99.90
33955;DHT22;20233;50.804;7.126;2023-06-22T08:26:17;26.40;99.90
33955;DHT22;20233;50.804;7.126;2023-06-22T08:28:44;26.50;99.90
33955;DHT22;20233;50.804;7.126;2023-06-22T08:31:14;26.60;99.90
33955;DHT22;20233;50.804;7.126;2023-06-22T08:33:41;26.70;99.90
33955;DHT22;20233;50.804;7.126;2023-06-22T08:36:12;26.60;99.90
33955;DHT22;20233;50.804;7.126;2023-06-22T08:38:43;26.60;99.90
33955;DHT22;20233;50.804;7.126;2023-06-22T08:41:18;26.70;99.90
33955;DHT22;20233;50.804;7.126;2023-06-22T08:43:46;26.80;99.90
33955;DHT22;20233;50.804;7.126;2023-06-22T08:46:14;26.70;99.90
33955;DHT22;20233;50.804;7.126;2023-06-22T08:48:46;26.50;99.90
33955;DHT22;20233;50.804;7.126;2023-06-22T08:51:14;26.50;99.90
33955;DHT22;20233;50.804;7.126;2023-06-22T08:53:42;26.60;99.90
33955;DHT22;20233;50.804;7.126;2023-06-22T08:56:11;26.70;99.90
33955;DHT22;20233;50.804;7.126;2023-06-22T08:58:39;26.70;99.90
33955;DHT22;20233;50.804;7.126;2023-06-22T09:01:06;26.70;99.90
33955;DHT22;20233;50.804;7.126;2023-06-22T09:03:34;26.90;99.90
33955;DHT22;20233;50.804;7.126;2023-06-22T09:06:03;27.00;99.90
33955;DHT22;20233;50.804;7.126;2023-06-22T09:08:31;27.10;99.90
33955;DHT22;20233;50.804;7.126;2023-06-22T09:10:58;27.00;99.90
33955;DHT22;20233;50.804;7.126;2023-06-22T09:13:25;27.00;99.90
33955;DHT22;20233;50.804;7.126;2023-06-22T09:15:54;27.10;99.90
33955;DHT22;20233;50.804;7.126;2023-06-22T09:20:49;27.50;99.90
33955;DHT22;20233;50.804;7.126;2023-06-22T09:23:17;27.60;99.90
33955;DHT22;20233;50.804;7.126;2023-06-22T09:25:45;27.50;99.90
33955;DHT22;20233;50.804;7.126;2023-06-22T09:28:15;27.60;99.90
33955;DHT22;20233;50.804;7.126;2023-06-22T09:30:45;27.60;99.90
33955;DHT22;20233;50.804;7.126;2023-06-22T09:33:12;27.60;99.90
33955;DHT22;20233;50.804;7.126;2023-06-22T09:35:41;27.80;99.90
33955;DHT22;20233;50.804;7.126;2023-06-22T09:38:07;27.90;99.90
33955;DHT22;20233;50.804;7.126;2023-06-22T09:40:34;28.00;99.90
33955;DHT22;20233;50.804;7.126;2023-06-22T09:43:05;28.30;99.90
33955;DHT22;20233;50.804;7.126;2023-06-22T09:45:33;28.10;99.90
33955;DHT22;20233;50.804;7.126;2023-06-22T09:50:26;28.60;99.90
33955;DHT22;20233;50.804;7.126;2023-06-22T09:52:55;28.60;99.90
33955;DHT22;20233;50.804;7.126;2023-06-22T09:56:00;28.70;99.90
33955;DHT22;20233;50.804;7.126;2023-06-22T09:58:29;28.60;99.90
33955;DHT22;20233;50.804;7.126;2023-06-22T10:00:57;28.40;99.90
33955;DHT22;20233;50.804;7.126;2023-06-22T10:03:27;28.30;99.90
33955;DHT22;20233;50.804;7.126;2023-06-22T10:05:57;28.10;99.90
33955;DHT22;20233;50.804;7.126;2023-06-22T10:08:33;28.30;99.90
33955;DHT22;20233;50.804;7.126;2023-06-22T10:11:01;28.20;99.90
33955;DHT22;20233;50.804;7.126;2023-06-22T10:13:29;28.10;99.90
33955;DHT22;20233;50.804;7.126;2023-06-22T10:15:56;28.20;99.90
33955;DHT22;20233;50.804;7.126;2023-06-22T10:18:23;28.30;99.90
33955;DHT22;20233;50.804;7.126;2023-06-22T10:20:51;28.30;99.90
33955;DHT22;20233;50.804;7.126;2023-06-22T10:23:28;28.30;99.90
33955;DHT22;20233;50.804;7.126;2023-06-22T10:25:55;28.20;99.90
33955;DHT22;20233;50.804;7.126;2023-06-22T10:28:24;28.00;99.90
33955;DHT22;20233;50.804;7.126;2023-06-22T10:30:51;27.90;99.90
33955;DHT22;20233;50.804;7.126;2023-06-22T10:33:19;27.80;99.90
33955;DHT22;20233;50.804;7.126;2023-06-22T10:35:48;27.70;99.90
33955;DHT22;20233;50.804;7.126;2023-06-22T10:38:27;27.60;99.90
33955;DHT22;20233;50.804;7.126;2023-06-22T10:41:30;27.50;99.90
33955;DHT22;20233;50.804;7.126;2023-06-22T10:43:57;27.30;99.90
33955;DHT22;20233;50.804;7.126;2023-06-22T10:46:28;27.20;99.90
33955;DHT22;20233;50.804;7.126;2023-06-22T10:48:54;27.10;99.90
33955;DHT22;20233;50.804;7.126;2023-06-22T10:51:23;27.00;99.90
33955;DHT22;20233;50.804;7.126;2023-06-22T10:53:50;26.80;99.90
33955;DHT22;20233;50.804;7.126;2023-06-22T10:56:18;26.70;99.90
33955;DHT22;20233;50.804;7.126;2023-06-22T10:59:10;26.60;99.90
33955;DHT22;20233;50.804;7.126;2023-06-22T11:02:45;26.40;99.90
33955;DHT22;20233;50.804;7.126;2023-06-22T11:08:28;25.90;99.90
33955;DHT22;20233;50.804;7.126;2023-06-22T11:10:55;25.70;99.90
33955;DHT22;20233;50.804;7.126;2023-06-22T11:13:21;25.20;99.90
33955;DHT22;20233;50.804;7.126;2023-06-22T11:15:49;23.80;99.90
33955;DHT22;20233;50.804;7.126;2023-06-22T11:18:15;24.20;99.90
33955;DHT22;20233;50.804;7.126;2023-06-22T11:20:42;24.60;99.90
33955;DHT22;20233;50.804;7.126;2023-06-22T11:23:10;24.80;99.90
33955;DHT22;20233;50.804;7.126;2023-06-22T11:25:40;24.90;99.90
33955;DHT22;20233;50.804;7.126;2023-06-22T11:28:08;24.30;99.90
33955;DHT22;20233;50.804;7.126;2023-06-22T11:30:35;23.80;99.90
33955;DHT22;20233;50.804;7.126;2023-06-22T11:33:03;23.50;99.90
33955;DHT22;20233;50.804;7.126;2023-06-22T11:35:30;23.10;99.90
33955;DHT22;20233;50.804;7.126;2023-06-22T11:37:57;22.90;99.90
33955;DHT22;20233;50.804;7.126;2023-06-22T11:40:24;23.00;99.90
33955;DHT22;20233;50.804;7.126;2023-06-22T11:42:52;23.40;99.90
33955;DHT22;20233;50.804;7.126;2023-06-22T11:45:19;23.60;99.90
33955;DHT22;20233;50.804;7.126;2023-06-22T11:51:37;24.00;99.90
33955;DHT22;20233;50.804;7.126;2023-06-22T11:54:55;24.70;99.90
33955;DHT22;20233;50.804;7.126;2023-06-22T11:58:46;24.70;99.90
33955;DHT22;20233;50.804;7.126;2023-06-22T12:01:59;25.10;99.90
33955;DHT22;20233;50.804;7.126;2023-06-22T12:04:38;24.80;99.90
33955;DHT22;20233;50.804;7.126;2023-06-22T12:07:14;24.60;99.90
33955;DHT22;20233;50.804;7.126;2023-06-22T12:10:17;24.30;99.90
33955;DHT22;20233;50.804;7.126;2023-06-22T12:13:15;24.70;99.90
33955;DHT22;20233;50.804;7.126;2023-06-22T12:16:28;24.90;99.90
33955;DHT22;20233;50.804;7.126;2023-06-22T12:19:31;25.00;99.90
33955;DHT22;20233;50.804;7.126;2023-06-22T12:22:04;25.10;99.90
33955;DHT22;20233;50.804;7.126;2023-06-22T12:25:08;25.10;99.90
33955;DHT22;20233;50.804;7.126;2023-06-22T12:28:50;25.10;99.90
33955;DHT22;20233;50.804;7.126;2023-06-22T12:31:22;25.10;99.90
33955;DHT22;20233;50.804;7.126;2023-06-22T12:34:23;25.20;99.90
33955;DHT22;20233;50.804;7.126;2023-06-22T12:37:37;25.30;99.90
33955;DHT22;20233;50.804;7.126;2023-06-22T12:41:09;25.10;99.90
33955;DHT22;20233;50.804;7.126;2023-06-22T12:44:46;25.50;99.90
33955;DHT22;20233;50.804;7.126;2023-06-22T12:47:56;25.70;99.90
33955;DHT22;20233;50.804;7.126;2023-06-22T12:50:22;25.50;99.90
33955;DHT22;20233;50.804;7.126;2023-06-22T12:59:41;24.80;99.90
33955;DHT22;20233;50.804;7.126;2023-06-22T13:02:20;25.00;99.90
33955;DHT22;20233;50.804;7.126;2023-06-22T13:13:26;24.90;99.90
33955;DHT22;20233;50.804;7.126;2023-06-22T13:16:51;25.50;99.90
33955;DHT22;20233;50.804;7.126;2023-06-22T13:20:08;25.80;99.90
33955;DHT22;20233;50.804;7.126;2023-06-22T13:22:50;25.80;99.90
33955;DHT22;20233;50.804;7.126;2023-06-22T13:25:51;25.80;99.90
33955;DHT22;20233;50.804;7.126;2023-06-22T13:29:04;25.70;99.90
33955;DHT22;20233;50.804;7.126;2023-06-22T13:32:30;25.90;99.90
33955;DHT22;20233;50.804;7.126;2023-06-22T13:35:50;26.00;99.90
33955;DHT22;20233;50.804;7.126;2023-06-22T13:39:15;25.90;99.90
33955;DHT22;20233;50.804;7.126;2023-06-22T13:42:45;25.90;99.90
33955;DHT22;20233;50.804;7.126;2023-06-22T13:46:14;25.90;99.90
33955;DHT22;20233;50.804;7.126;2023-06-22T13:49:14;26.20;99.90
33955;DHT22;20233;50.804;7.126;2023-06-22T13:51:40;26.40;99.90
33955;DHT22;20233;50.804;7.126;2023-06-22T13:54:07;26.20;99.90
33955;DHT22;20233;50.804;7.126;2023-06-22T13:56:36;25.90;99.90
33955;DHT22;20233;50.804;7.126;2023-06-22T13:59:03;26.20;99.90
33955;DHT22;20233;50.804;7.126;2023-06-22T14:01:29;26.30;99.90
33955;DHT22;20233;50.804;7.126;2023-06-22T14:03:57;26.20;99.90
33955;DHT22;20233;50.804;7.126;2023-06-22T14:06:24;26.10;99.90
33955;DHT22;20233;50.804;7.126;2023-06-22T14:08:50;26.00;99.90
33955;DHT22;20233;50.804;7.126;2023-06-22T14:11:17;26.00;99.90
33955;DHT22;20233;50.804;7.126;2023-06-22T14:13:43;26.20;99.90
33955;DHT22;20233;50.804;7.126;2023-06-22T14:16:10;26.40;99.90
33955;DHT22;20233;50.804;7.126;2023-06-22T14:18:36;26.40;99.90
33955;DHT22;20233;50.804;7.126;2023-06-22T14:21:03;26.30;99.90
33955;DHT22;20233;50.804;7.126;2023-06-22T14:23:29;26.30;99.90
33955;DHT22;20233;50.804;7.126;2023-06-22T14:25:57;26.20;99.90
33955;DHT22;20233;50.804;7.126;2023-06-22T14:28:24;26.20;99.90
33955;DHT22;20233;50.804;7.126;2023-06-22T14:30:50;26.30;99.90
33955;DHT22;20233;50.804;7.126;2023-06-22T14:33:16;26.30;99.90
33955;DHT22;20233;50.804;7.126;2023-06-22T14:35:44;26.40;99.90
33955;DHT22;20233;50.804;7.126;2023-06-22T14:38:11;26.30;99.90
33955;DHT22;20233;50.804;7.126;2023-06-22T14:40:37;26.50;99.90
33955;DHT22;20233;50.804;7.126;2023-06-22T14:43:04;26.70;99.90
33955;DHT22;20233;50.804;7.126;2023-06-22T14:45:30;26.90;99.90
33955;DHT22;20233;50.804;7.126;2023-06-22T14:47:57;26.70;99.90
33955;DHT22;20233;50.804;7.126;2023-06-22T14:50:22;26.50;99.90
33955;DHT22;20233;50.804;7.126;2023-06-22T14:52:49;25.80;99.90
33955;DHT22;20233;50.804;7.126;2023-06-22T14:55:15;25.40;99.90
33955;DHT22;20233;50.804;7.126;2023-06-22T14:57:42;25.40;99.90
33955;DHT22;20233;50.804;7.126;2023-06-22T15:00:08;25.30;99.90
33955;DHT22;20233;50.804;7.126;2023-06-22T15:02:34;25.40;99.90
33955;DHT22;20233;50.804;7.126;2023-06-22T15:05:00;25.10;99.90
33955;DHT22;20233;50.804;7.126;2023-06-22T15:07:28;25.00;99.90
33955;DHT22;20233;50.804;7.126;2023-06-22T15:09:55;25.00;99.90
33955;DHT22;20233;50.804;7.126;2023-06-22T15:12:21;24.90;99.90
33955;DHT22;20233;50.804;7.126;2023-06-22T15:14:47;24.80;99.90
33955;DHT22;20233;50.804;7.126;2023-06-22T15:17:14;24.60;99.90
33955;DHT22;20233;50.804;7.126;2023-06-22T15:19:41;24.50;99.90
33955;DHT22;20233;50.804;7.126;2023-06-22T15:22:08;24.30;99.90
33955;DHT22;20233;50.804;7.126;2023-06-22T15:24:34;24.20;99.90
33955;DHT22;20233;50.804;7.126;2023-06-22T15:27:01;24.10;99.90
33955;DHT22;20233;50.804;7.126;2023-06-22T15:29:28;24.00;99.90
33955;DHT22;20233;50.804;7.126;2023-06-22T15:31:59;23.90;99.90
33955;DHT22;20233;50.804;7.126;2023-06-22T15:34:25;23.70;99.90
33955;DHT22;20233;50.804;7.126;2023-06-22T15:36:52;23.30;99.90
33955;DHT22;20233;50.804;7.126;2023-06-22T15:39:18;23.40;99.90
33955;DHT22;20233;50.804;7.126;2023-06-22T15:41:44;23.50;99.90
33955;DHT22;20233;50.804;7.126;2023-06-22T15:44:10;23.50;99.90
33955;DHT22;20233;50.804;7.126;2023-06-22T15:46:36;23.40;99.90
33955;DHT22;20233;50.804;7.126;2023-06-22T15:49:02;23.50;99.90
33955;DHT22;20233;50.804;7.126;2023-06-22T15:51:30;23.60;99.90
33955;DHT22;20233;50.804;7.126;2023-06-22T15:53:56;23.50;99.90
33955;DHT22;20233;50.804;7.126;2023-06-22T15:56:23;23.60;99.90
33955;DHT22;20233;50.804;7.126;2023-06-22T15:58:51;23.70;99.90
33955;DHT22;20233;50.804;7.126;2023-06-22T16:01:17;23.60;99.90
33955;DHT22;20233;50.804;7.126;2023-06-22T16:03:44;23.70;99.90
33955;DHT22;20233;50.804;7.126;2023-06-22T16:06:12;23.80;99.90
33955;DHT22;20233;50.804;7.126;2023-06-22T16:08:39;23.70;99.90
33955;DHT22;20233;50.804;7.126;2023-06-22T16:11:05;23.70;99.90
33955;DHT22;20233;50.804;7.126;2023-06-22T16:13:32;23.70;99.90
33955;DHT22;20233;50.804;7.126;2023-06-22T16:15:58;23.70;99.90
33955;DHT22;20233;50.804;7.126;2023-06-22T16:18:25;23.70;99.90
33955;DHT22;20233;50.804;7.126;2023-06-22T16:20:52;23.70;99.90
33955;DHT22;20233;50.804;7.126;2023-06-22T16:23:19;23.80;99.90
33955;DHT22;20233;50.804;7.126;2023-06-22T16:25:46;23.90;99.90
33955;DHT22;20233;50.804;7.126;2023-06-22T16:28:13;23.90;99.90
33955;DHT22;20233;50.804;7.126;2023-06-22T16:30:39;23.90;99.90
33955;DHT22;20233;50.804;7.126;2023-06-22T16:33:04;23.90;99.90
33955;DHT22;20233;50.804;7.126;2023-06-22T16:35:30;23.90;99.90